sensor_id;sensor_type;location;lat;lon;timestamp;P1;durP1;ratioP1;P2;durP2;ratioP2
8716;SDS011;4395;48.554;8.820;2022-10-24T00:00:18;6.10;;;1.90;;
8716;SDS011;4395;48.554;8.820;2022-10-24T00:02:21;3.77;;;1.50;;
8716;SDS011;4395;48.554;8.820;2022-10-24T00:04:25;6.50;;;1.90;;
8716;SDS011;4395;48.554;8.820;2022-10-24T00:06:27;4.00;;;1.33;;
8716;SDS011;4395;48.554;8.820;2022-10-24T00:08:30;4.90;;;1.10;;
8716;SDS011;4395;48.554;8.820;2022-10-24T00:10:33;3.47;;;1.43;;
8716;SDS011;4395;48.554;8.820;2022-10-24T00:12:37;5.30;;;1.80;;
8716;SDS011;4395;48.554;8.820;2022-10-24T00:14:41;3.23;;;1.50;;
8716;SDS011;4395;48.554;8.820;2022-10-24T00:16:44;4.47;;;1.50;;
8716;SDS011;4395;48.554;8.820;2022-10-24T00:18:47;4.03;;;1.30;;
8716;SDS011;4395;48.554;8.820;2022-10-24T00:20:50;9.77;;;1.73;;
8716;SDS011;4395;48.554;8.820;2022-10-24T00:22:53;4.43;;;1.80;;
8716;SDS011;4395;48.554;8.820;2022-10-24T00:24:56;6.90;;;1.83;;
8716;SDS011;4395;48.554;8.820;2022-10-24T00:26:59;8.73;;;1.90;;
8716;SDS011;4395;48.554;8.820;2022-10-24T00:29:02;5.80;;;1.60;;
8716;SDS011;4395;48.554;8.820;2022-10-24T00:31:07;3.07;;;1.10;;
8716;SDS011;4395;48.554;8.820;2022-10-24T00:33:14;6.60;;;1.73;;
8716;SDS011;4395;48.554;8.820;2022-10-24T00:35:16;4.97;;;1.70;;
8716;SDS011;4395;48.554;8.820;2022-10-24T00:37:19;5.57;;;1.70;;
8716;SDS011;4395;48.554;8.820;2022-10-24T00:39:22;5.50;;;1.90;;
8716;SDS011;4395;48.554;8.820;2022-10-24T00:41:27;9.47;;;1.80;;
8716;SDS011;4395;48.554;8.820;2022-10-24T00:43:33;4.53;;;1.67;;
8716;SDS011;4395;48.554;8.820;2022-10-24T00:45:39;4.37;;;1.77;;
8716;SDS011;4395;48.554;8.820;2022-10-24T00:47:45;4.53;;;1.53;;
8716;SDS011;4395;48.554;8.820;2022-10-24T00:49:49;5.33;;;1.60;;
8716;SDS011;4395;48.554;8.820;2022-10-24T00:51:55;5.13;;;1.30;;
8716;SDS011;4395;48.554;8.820;2022-10-24T00:54:04;5.33;;;1.63;;
8716;SDS011;4395;48.554;8.820;2022-10-24T00:56:10;5.13;;;1.70;;
8716;SDS011;4395;48.554;8.820;2022-10-24T00:58:14;3.40;;;1.53;;
8716;SDS011;4395;48.554;8.820;2022-10-24T01:00:20;4.97;;;1.73;;
8716;SDS011;4395;48.554;8.820;2022-10-24T01:02:25;6.37;;;1.70;;
8716;SDS011;4395;48.554;8.820;2022-10-24T01:04:29;6.07;;;1.60;;
8716;SDS011;4395;48.554;8.820;2022-10-24T01:06:36;4.67;;;1.90;;
8716;SDS011;4395;48.554;8.820;2022-10-24T01:08:46;4.73;;;1.60;;
8716;SDS011;4395;48.554;8.820;2022-10-24T01:10:56;5.57;;;1.73;;
8716;SDS011;4395;48.554;8.820;2022-10-24T01:13:09;6.93;;;2.00;;
8716;SDS011;4395;48.554;8.820;2022-10-24T01:15:24;6.70;;;2.10;;
8716;SDS011;4395;48.554;8.820;2022-10-24T01:17:36;12.57;;;2.43;;
8716;SDS011;4395;48.554;8.820;2022-10-24T01:22:20;5.37;;;2.00;;
8716;SDS011;4395;48.554;8.820;2022-10-24T01:27:14;11.63;;;4.97;;
8716;SDS011;4395;48.554;8.820;2022-10-24T01:29:41;8.77;;;3.97;;
8716;SDS011;4395;48.554;8.820;2022-10-24T01:31:48;10.77;;;5.07;;
8716;SDS011;4395;48.554;8.820;2022-10-24T01:33:56;8.13;;;4.77;;
8716;SDS011;4395;48.554;8.820;2022-10-24T01:36:04;10.60;;;4.80;;
8716;SDS011;4395;48.554;8.820;2022-10-24T01:38:12;8.10;;;5.00;;
8716;SDS011;4395;48.554;8.820;2022-10-24T01:40:19;10.07;;;4.80;;
8716;SDS011;4395;48.554;8.820;2022-10-24T01:42:27;8.90;;;3.97;;
8716;SDS011;4395;48.554;8.820;2022-10-24T01:44:34;6.83;;;3.10;;
8716;SDS011;4395;48.554;8.820;2022-10-24T01:46:44;7.97;;;3.53;;
8716;SDS011;4395;48.554;8.820;2022-10-24T01:48:54;8.27;;;4.07;;
8716;SDS011;4395;48.554;8.820;2022-10-24T01:51:00;9.33;;;3.63;;
8716;SDS011;4395;48.554;8.820;2022-10-24T01:53:06;6.97;;;3.30;;
8716;SDS011;4395;48.554;8.820;2022-10-24T01:55:10;6.77;;;3.97;;
8716;SDS011;4395;48.554;8.820;2022-10-24T01:57:14;9.40;;;3.30;;
8716;SDS011;4395;48.554;8.820;2022-10-24T01:59:39;8.30;;;2.70;;
8716;SDS011;4395;48.554;8.820;2022-10-24T02:01:48;6.03;;;2.27;;
8716;SDS011;4395;48.554;8.820;2022-10-24T02:03:51;10.93;;;2.47;;
8716;SDS011;4395;48.554;8.820;2022-10-24T02:05:58;7.57;;;2.47;;
8716;SDS011;4395;48.554;8.820;2022-10-24T02:08:05;6.60;;;2.60;;
8716;SDS011;4395;48.554;8.820;2022-10-24T02:10:13;5.97;;;2.30;;
8716;SDS011;4395;48.554;8.820;2022-10-24T02:12:22;7.73;;;2.13;;
8716;SDS011;4395;48.554;8.820;2022-10-24T02:14:29;5.93;;;2.50;;
8716;SDS011;4395;48.554;8.820;2022-10-24T02:16:37;10.33;;;2.80;;
8716;SDS011;4395;48.554;8.820;2022-10-24T02:18:41;8.63;;;2.73;;
8716;SDS011;4395;48.554;8.820;2022-10-24T02:20:46;8.90;;;2.83;;
8716;SDS011;4395;48.554;8.820;2022-10-24T02:22:55;9.67;;;2.43;;
8716;SDS011;4395;48.554;8.820;2022-10-24T02:25:02;7.77;;;2.90;;
8716;SDS011;4395;48.554;8.820;2022-10-24T02:27:11;12.03;;;3.27;;
8716;SDS011;4395;48.554;8.820;2022-10-24T02:29:18;10.23;;;3.37;;
8716;SDS011;4395;48.554;8.820;2022-10-24T02:31:26;9.80;;;3.17;;
8716;SDS011;4395;48.554;8.820;2022-10-24T02:33:34;9.03;;;3.33;;
8716;SDS011;4395;48.554;8.820;2022-10-24T02:35:42;10.57;;;3.07;;
8716;SDS011;4395;48.554;8.820;2022-10-24T02:37:48;8.93;;;3.33;;
8716;SDS011;4395;48.554;8.820;2022-10-24T02:39:54;9.13;;;4.00;;
8716;SDS011;4395;48.554;8.820;2022-10-24T02:41:59;14.33;;;3.60;;
8716;SDS011;4395;48.554;8.820;2022-10-24T02:44:04;17.13;;;6.97;;
8716;SDS011;4395;48.554;8.820;2022-10-24T02:46:08;9.93;;;4.27;;
8716;SDS011;4395;48.554;8.820;2022-10-24T02:48:14;13.93;;;4.50;;
8716;SDS011;4395;48.554;8.820;2022-10-24T02:50:20;11.77;;;4.03;;
8716;SDS011;4395;48.554;8.820;2022-10-24T02:52:25;10.20;;;4.37;;
8716;SDS011;4395;48.554;8.820;2022-10-24T02:54:30;14.73;;;5.30;;
8716;SDS011;4395;48.554;8.820;2022-10-24T02:56:33;15.10;;;6.47;;
8716;SDS011;4395;48.554;8.820;2022-10-24T02:58:38;16.17;;;6.30;;
8716;SDS011;4395;48.554;8.820;2022-10-24T03:00:41;14.73;;;6.30;;
8716;SDS011;4395;48.554;8.820;2022-10-24T03:02:44;11.40;;;4.37;;
8716;SDS011;4395;48.554;8.820;2022-10-24T03:04:47;7.63;;;2.80;;
8716;SDS011;4395;48.554;8.820;2022-10-24T03:06:50;10.77;;;4.23;;
8716;SDS011;4395;48.554;8.820;2022-10-24T03:08:55;7.63;;;3.23;;
8716;SDS011;4395;48.554;8.820;2022-10-24T03:10:58;10.70;;;3.40;;
8716;SDS011;4395;48.554;8.820;2022-10-24T03:13:01;9.97;;;2.97;;
8716;SDS011;4395;48.554;8.820;2022-10-24T03:15:04;13.90;;;5.60;;
8716;SDS011;4395;48.554;8.820;2022-10-24T03:17:07;18.60;;;10.63;;
8716;SDS011;4395;48.554;8.820;2022-10-24T03:19:10;19.43;;;10.20;;
8716;SDS011;4395;48.554;8.820;2022-10-24T03:21:13;10.60;;;3.70;;
8716;SDS011;4395;48.554;8.820;2022-10-24T03:23:16;8.20;;;3.80;;
8716;SDS011;4395;48.554;8.820;2022-10-24T03:25:21;8.33;;;4.20;;
8716;SDS011;4395;48.554;8.820;2022-10-24T03:27:23;12.73;;;4.50;;
8716;SDS011;4395;48.554;8.820;2022-10-24T03:29:26;15.30;;;6.97;;
8716;SDS011;4395;48.554;8.820;2022-10-24T03:31:29;10.63;;;5.80;;
8716;SDS011;4395;48.554;8.820;2022-10-24T03:33:32;12.20;;;4.70;;
8716;SDS011;4395;48.554;8.820;2022-10-24T03:35:35;13.63;;;6.30;;
8716;SDS011;4395;48.554;8.820;2022-10-24T03:37:38;14.43;;;7.20;;
8716;SDS011;4395;48.554;8.820;2022-10-24T03:39:41;16.13;;;8.17;;
8716;SDS011;4395;48.554;8.820;2022-10-24T03:41:45;13.37;;;8.03;;
8716;SDS011;4395;48.554;8.820;2022-10-24T03:43:48;15.87;;;8.07;;
8716;SDS011;4395;48.554;8.820;2022-10-24T03:45:51;19.63;;;11.67;;
8716;SDS011;4395;48.554;8.820;2022-10-24T03:47:54;26.03;;;13.90;;
8716;SDS011;4395;48.554;8.820;2022-10-24T03:49:57;25.20;;;12.10;;
8716;SDS011;4395;48.554;8.820;2022-10-24T03:52:00;15.60;;;8.83;;
8716;SDS011;4395;48.554;8.820;2022-10-24T03:54:03;14.50;;;8.17;;
8716;SDS011;4395;48.554;8.820;2022-10-24T03:56:06;11.57;;;5.90;;
8716;SDS011;4395;48.554;8.820;2022-10-24T03:58:10;8.43;;;4.63;;
8716;SDS011;4395;48.554;8.820;2022-10-24T04:00:13;11.40;;;3.40;;
8716;SDS011;4395;48.554;8.820;2022-10-24T04:02:17;12.67;;;3.20;;
8716;SDS011;4395;48.554;8.820;2022-10-24T04:04:20;10.27;;;3.53;;
8716;SDS011;4395;48.554;8.820;2022-10-24T04:06:23;9.60;;;3.67;;
8716;SDS011;4395;48.554;8.820;2022-10-24T04:08:26;9.67;;;3.27;;
8716;SDS011;4395;48.554;8.820;2022-10-24T04:10:29;7.00;;;3.07;;
8716;SDS011;4395;48.554;8.820;2022-10-24T04:12:32;5.83;;;2.80;;
8716;SDS011;4395;48.554;8.820;2022-10-24T04:14:36;6.43;;;2.67;;
8716;SDS011;4395;48.554;8.820;2022-10-24T04:16:39;8.83;;;2.63;;
8716;SDS011;4395;48.554;8.820;2022-10-24T04:18:42;8.87;;;2.27;;
8716;SDS011;4395;48.554;8.820;2022-10-24T04:20:45;10.17;;;2.70;;
8716;SDS011;4395;48.554;8.820;2022-10-24T04:22:47;9.90;;;3.03;;
8716;SDS011;4395;48.554;8.820;2022-10-24T04:24:51;7.10;;;2.63;;
8716;SDS011;4395;48.554;8.820;2022-10-24T04:26:53;9.93;;;3.23;;
8716;SDS011;4395;48.554;8.820;2022-10-24T04:28:56;10.47;;;2.70;;
8716;SDS011;4395;48.554;8.820;2022-10-24T04:31:00;10.17;;;3.10;;
8716;SDS011;4395;48.554;8.820;2022-10-24T04:33:03;9.03;;;2.70;;
8716;SDS011;4395;48.554;8.820;2022-10-24T04:35:06;11.67;;;3.00;;
8716;SDS011;4395;48.554;8.820;2022-10-24T04:37:10;6.70;;;3.00;;
8716;SDS011;4395;48.554;8.820;2022-10-24T04:39:13;12.77;;;3.30;;
8716;SDS011;4395;48.554;8.820;2022-10-24T04:41:15;7.30;;;2.73;;
8716;SDS011;4395;48.554;8.820;2022-10-24T04:43:19;11.37;;;2.63;;
8716;SDS011;4395;48.554;8.820;2022-10-24T04:45:22;5.13;;;2.50;;
8716;SDS011;4395;48.554;8.820;2022-10-24T04:47:27;10.30;;;3.07;;
8716;SDS011;4395;48.554;8.820;2022-10-24T04:49:29;6.97;;;2.67;;
8716;SDS011;4395;48.554;8.820;2022-10-24T04:51:32;5.77;;;2.80;;
8716;SDS011;4395;48.554;8.820;2022-10-24T04:53:35;8.33;;;2.70;;
8716;SDS011;4395;48.554;8.820;2022-10-24T04:55:38;8.00;;;2.60;;
8716;SDS011;4395;48.554;8.820;2022-10-24T04:57:40;7.20;;;2.50;;
8716;SDS011;4395;48.554;8.820;2022-10-24T04:59:44;7.93;;;2.63;;
8716;SDS011;4395;48.554;8.820;2022-10-24T05:01:46;10.00;;;2.47;;
8716;SDS011;4395;48.554;8.820;2022-10-24T05:03:51;4.60;;;2.40;;
8716;SDS011;4395;48.554;8.820;2022-10-24T05:05:54;7.60;;;2.37;;
8716;SDS011;4395;48.554;8.820;2022-10-24T05:07:56;6.03;;;2.37;;
8716;SDS011;4395;48.554;8.820;2022-10-24T05:09:59;9.43;;;2.53;;
8716;SDS011;4395;48.554;8.820;2022-10-24T05:12:02;6.87;;;2.20;;
8716;SDS011;4395;48.554;8.820;2022-10-24T05:14:06;8.23;;;2.30;;
8716;SDS011;4395;48.554;8.820;2022-10-24T05:16:08;7.40;;;2.57;;
8716;SDS011;4395;48.554;8.820;2022-10-24T05:18:11;9.70;;;2.50;;
8716;SDS011;4395;48.554;8.820;2022-10-24T05:20:15;6.97;;;2.57;;
8716;SDS011;4395;48.554;8.820;2022-10-24T05:22:18;9.43;;;3.07;;
8716;SDS011;4395;48.554;8.820;2022-10-24T05:24:21;8.37;;;2.40;;
8716;SDS011;4395;48.554;8.820;2022-10-24T05:26:23;7.93;;;2.40;;
8716;SDS011;4395;48.554;8.820;2022-10-24T05:28:26;4.13;;;2.20;;
8716;SDS011;4395;48.554;8.820;2022-10-24T05:30:29;8.67;;;2.83;;
8716;SDS011;4395;48.554;8.820;2022-10-24T05:32:32;6.93;;;2.53;;
8716;SDS011;4395;48.554;8.820;2022-10-24T05:34:39;8.70;;;2.70;;
8716;SDS011;4395;48.554;8.820;2022-10-24T05:36:43;6.37;;;2.50;;
8716;SDS011;4395;48.554;8.820;2022-10-24T05:38:46;8.10;;;2.57;;
8716;SDS011;4395;48.554;8.820;2022-10-24T05:40:49;6.80;;;2.50;;
8716;SDS011;4395;48.554;8.820;2022-10-24T05:42:52;5.67;;;2.83;;
8716;SDS011;4395;48.554;8.820;2022-10-24T05:44:55;6.90;;;2.57;;
8716;SDS011;4395;48.554;8.820;2022-10-24T05:46:58;9.80;;;3.40;;
8716;SDS011;4395;48.554;8.820;2022-10-24T05:49:00;8.80;;;3.17;;
8716;SDS011;4395;48.554;8.820;2022-10-24T05:51:03;9.37;;;3.10;;
8716;SDS011;4395;48.554;8.820;2022-10-24T05:53:07;8.97;;;3.07;;
8716;SDS011;4395;48.554;8.820;2022-10-24T05:55:10;8.30;;;2.63;;
8716;SDS011;4395;48.554;8.820;2022-10-24T05:57:17;6.47;;;2.73;;
8716;SDS011;4395;48.554;8.820;2022-10-24T05:59:20;6.03;;;2.37;;
8716;SDS011;4395;48.554;8.820;2022-10-24T06:01:23;5.33;;;2.80;;
8716;SDS011;4395;48.554;8.820;2022-10-24T06:03:26;8.67;;;3.63;;
8716;SDS011;4395;48.554;8.820;2022-10-24T06:05:29;6.90;;;3.00;;
8716;SDS011;4395;48.554;8.820;2022-10-24T06:07:32;8.37;;;3.27;;
8716;SDS011;4395;48.554;8.820;2022-10-24T06:09:37;8.17;;;3.20;;
8716;SDS011;4395;48.554;8.820;2022-10-24T06:11:40;6.83;;;2.93;;
8716;SDS011;4395;48.554;8.820;2022-10-24T06:13:43;9.80;;;2.97;;
8716;SDS011;4395;48.554;8.820;2022-10-24T06:15:46;11.23;;;3.70;;
8716;SDS011;4395;48.554;8.820;2022-10-24T06:17:49;8.93;;;4.13;;
8716;SDS011;4395;48.554;8.820;2022-10-24T06:19:52;6.70;;;3.30;;
8716;SDS011;4395;48.554;8.820;2022-10-24T06:21:55;7.93;;;2.97;;
8716;SDS011;4395;48.554;8.820;2022-10-24T06:23:58;8.33;;;3.50;;
8716;SDS011;4395;48.554;8.820;2022-10-24T06:26:05;6.07;;;2.83;;
8716;SDS011;4395;48.554;8.820;2022-10-24T06:28:10;10.50;;;5.07;;
8716;SDS011;4395;48.554;8.820;2022-10-24T06:30:15;10.00;;;3.73;;
8716;SDS011;4395;48.554;8.820;2022-10-24T06:32:17;5.63;;;2.87;;
8716;SDS011;4395;48.554;8.820;2022-10-24T06:34:20;6.60;;;2.40;;
8716;SDS011;4395;48.554;8.820;2022-10-24T06:36:23;9.23;;;2.40;;
8716;SDS011;4395;48.554;8.820;2022-10-24T06:38:30;8.20;;;3.20;;
8716;SDS011;4395;48.554;8.820;2022-10-24T06:40:35;11.90;;;5.63;;
8716;SDS011;4395;48.554;8.820;2022-10-24T06:42:41;6.53;;;4.43;;
8716;SDS011;4395;48.554;8.820;2022-10-24T06:44:44;7.27;;;4.30;;
8716;SDS011;4395;48.554;8.820;2022-10-24T06:46:47;8.40;;;4.00;;
8716;SDS011;4395;48.554;8.820;2022-10-24T06:48:51;9.27;;;3.57;;
8716;SDS011;4395;48.554;8.820;2022-10-24T06:50:54;7.33;;;3.77;;
8716;SDS011;4395;48.554;8.820;2022-10-24T06:52:57;8.27;;;4.37;;
8716;SDS011;4395;48.554;8.820;2022-10-24T06:55:00;9.17;;;3.50;;
8716;SDS011;4395;48.554;8.820;2022-10-24T06:57:03;16.20;;;9.30;;
8716;SDS011;4395;48.554;8.820;2022-10-24T06:59:08;14.83;;;9.13;;
8716;SDS011;4395;48.554;8.820;2022-10-24T07:01:13;8.20;;;3.70;;
8716;SDS011;4395;48.554;8.820;2022-10-24T07:03:17;10.00;;;3.67;;
8716;SDS011;4395;48.554;8.820;2022-10-24T07:05:20;9.13;;;4.57;;
8716;SDS011;4395;48.554;8.820;2022-10-24T07:07:23;12.03;;;5.40;;
8716;SDS011;4395;48.554;8.820;2022-10-24T07:09:26;10.67;;;4.70;;
8716;SDS011;4395;48.554;8.820;2022-10-24T07:11:29;8.67;;;4.23;;
8716;SDS011;4395;48.554;8.820;2022-10-24T07:13:32;8.67;;;3.73;;
8716;SDS011;4395;48.554;8.820;2022-10-24T07:15:36;8.07;;;3.90;;
8716;SDS011;4395;48.554;8.820;2022-10-24T07:17:39;6.43;;;3.43;;
8716;SDS011;4395;48.554;8.820;2022-10-24T07:19:43;7.20;;;3.80;;
8716;SDS011;4395;48.554;8.820;2022-10-24T07:21:46;9.07;;;3.30;;
8716;SDS011;4395;48.554;8.820;2022-10-24T07:23:49;9.13;;;3.10;;
8716;SDS011;4395;48.554;8.820;2022-10-24T07:25:53;6.60;;;3.10;;
8716;SDS011;4395;48.554;8.820;2022-10-24T07:27:55;5.03;;;2.70;;
8716;SDS011;4395;48.554;8.820;2022-10-24T07:29:58;8.23;;;2.90;;
8716;SDS011;4395;48.554;8.820;2022-10-24T07:32:07;7.13;;;2.77;;
8716;SDS011;4395;48.554;8.820;2022-10-24T07:34:10;8.50;;;3.50;;
8716;SDS011;4395;48.554;8.820;2022-10-24T07:36:14;13.23;;;3.20;;
8716;SDS011;4395;48.554;8.820;2022-10-24T07:38:19;7.43;;;3.13;;
8716;SDS011;4395;48.554;8.820;2022-10-24T07:40:22;11.37;;;3.37;;
8716;SDS011;4395;48.554;8.820;2022-10-24T07:42:25;6.33;;;3.00;;
8716;SDS011;4395;48.554;8.820;2022-10-24T07:44:28;9.53;;;3.00;;
8716;SDS011;4395;48.554;8.820;2022-10-24T07:46:31;5.43;;;3.00;;
8716;SDS011;4395;48.554;8.820;2022-10-24T07:48:35;7.03;;;2.83;;
8716;SDS011;4395;48.554;8.820;2022-10-24T07:50:40;6.70;;;2.70;;
8716;SDS011;4395;48.554;8.820;2022-10-24T07:52:45;10.13;;;3.80;;
8716;SDS011;4395;48.554;8.820;2022-10-24T07:54:47;5.93;;;3.20;;
8716;SDS011;4395;48.554;8.820;2022-10-24T07:56:50;9.63;;;3.33;;
8716;SDS011;4395;48.554;8.820;2022-10-24T07:58:54;4.97;;;3.03;;
8716;SDS011;4395;48.554;8.820;2022-10-24T08:01:01;9.37;;;3.63;;
8716;SDS011;4395;48.554;8.820;2022-10-24T08:03:04;8.37;;;3.03;;
8716;SDS011;4395;48.554;8.820;2022-10-24T08:05:08;7.10;;;3.17;;
8716;SDS011;4395;48.554;8.820;2022-10-24T08:07:11;6.73;;;2.90;;
8716;SDS011;4395;48.554;8.820;2022-10-24T08:09:14;6.33;;;2.63;;
8716;SDS011;4395;48.554;8.820;2022-10-24T08:11:19;9.40;;;2.93;;
8716;SDS011;4395;48.554;8.820;2022-10-24T08:13:23;6.23;;;2.67;;
8716;SDS011;4395;48.554;8.820;2022-10-24T08:15:26;10.23;;;3.23;;
8716;SDS011;4395;48.554;8.820;2022-10-24T08:17:29;8.90;;;2.97;;
8716;SDS011;4395;48.554;8.820;2022-10-24T08:19:32;6.57;;;2.80;;
8716;SDS011;4395;48.554;8.820;2022-10-24T08:21:37;8.53;;;3.37;;
8716;SDS011;4395;48.554;8.820;2022-10-24T08:23:41;5.13;;;2.70;;
8716;SDS011;4395;48.554;8.820;2022-10-24T08:25:44;5.90;;;2.70;;
8716;SDS011;4395;48.554;8.820;2022-10-24T08:27:47;7.40;;;3.40;;
8716;SDS011;4395;48.554;8.820;2022-10-24T08:29:50;4.97;;;2.33;;
8716;SDS011;4395;48.554;8.820;2022-10-24T08:31:55;5.20;;;2.40;;
8716;SDS011;4395;48.554;8.820;2022-10-24T08:33:58;6.47;;;2.50;;
8716;SDS011;4395;48.554;8.820;2022-10-24T08:36:02;4.37;;;2.47;;
8716;SDS011;4395;48.554;8.820;2022-10-24T08:38:08;10.67;;;2.63;;
8716;SDS011;4395;48.554;8.820;2022-10-24T08:40:13;5.33;;;2.23;;
8716;SDS011;4395;48.554;8.820;2022-10-24T08:42:19;6.00;;;2.33;;
8716;SDS011;4395;48.554;8.820;2022-10-24T08:44:25;5.30;;;2.20;;
8716;SDS011;4395;48.554;8.820;2022-10-24T08:46:35;7.57;;;2.43;;
8716;SDS011;4395;48.554;8.820;2022-10-24T08:48:46;7.27;;;2.90;;
8716;SDS011;4395;48.554;8.820;2022-10-24T08:50:56;7.50;;;2.30;;
8716;SDS011;4395;48.554;8.820;2022-10-24T08:53:10;6.87;;;2.47;;
8716;SDS011;4395;48.554;8.820;2022-10-24T08:55:16;9.07;;;2.57;;
8716;SDS011;4395;48.554;8.820;2022-10-24T08:57:42;6.50;;;2.33;;
8716;SDS011;4395;48.554;8.820;2022-10-24T08:59:47;7.33;;;2.30;;
8716;SDS011;4395;48.554;8.820;2022-10-24T09:01:53;5.07;;;2.30;;
8716;SDS011;4395;48.554;8.820;2022-10-24T09:04:06;5.47;;;2.03;;
8716;SDS011;4395;48.554;8.820;2022-10-24T09:06:12;8.90;;;2.17;;
8716;SDS011;4395;48.554;8.820;2022-10-24T09:08:22;3.10;;;2.20;;
8716;SDS011;4395;48.554;8.820;2022-10-24T09:10:32;6.27;;;2.27;;
8716;SDS011;4395;48.554;8.820;2022-10-24T09:12:42;5.93;;;2.50;;
8716;SDS011;4395;48.554;8.820;2022-10-24T09:14:48;6.70;;;2.43;;
8716;SDS011;4395;48.554;8.820;2022-10-24T09:16:57;5.30;;;2.20;;
8716;SDS011;4395;48.554;8.820;2022-10-24T09:19:01;6.17;;;2.07;;
8716;SDS011;4395;48.554;8.820;2022-10-24T09:21:05;8.03;;;2.30;;
8716;SDS011;4395;48.554;8.820;2022-10-24T09:23:09;5.13;;;2.33;;
8716;SDS011;4395;48.554;8.820;2022-10-24T09:25:17;7.03;;;2.10;;
8716;SDS011;4395;48.554;8.820;2022-10-24T09:27:24;3.83;;;2.30;;
8716;SDS011;4395;48.554;8.820;2022-10-24T09:29:30;4.03;;;2.07;;
8716;SDS011;4395;48.554;8.820;2022-10-24T09:31:35;5.50;;;2.00;;
8716;SDS011;4395;48.554;8.820;2022-10-24T09:33:37;5.73;;;2.30;;
8716;SDS011;4395;48.554;8.820;2022-10-24T09:35:42;4.53;;;2.13;;
8716;SDS011;4395;48.554;8.820;2022-10-24T09:37:47;3.93;;;2.27;;
8716;SDS011;4395;48.554;8.820;2022-10-24T09:39:54;7.33;;;3.07;;
8716;SDS011;4395;48.554;8.820;2022-10-24T09:42:11;4.83;;;2.33;;
8716;SDS011;4395;48.554;8.820;2022-10-24T09:44:28;5.40;;;2.70;;
8716;SDS011;4395;48.554;8.820;2022-10-24T09:46:34;5.60;;;2.63;;
8716;SDS011;4395;48.554;8.820;2022-10-24T09:48:47;7.37;;;3.10;;
8716;SDS011;4395;48.554;8.820;2022-10-24T09:50:52;5.23;;;2.50;;
8716;SDS011;4395;48.554;8.820;2022-10-24T09:52:57;6.07;;;2.80;;
8716;SDS011;4395;48.554;8.820;2022-10-24T09:55:05;7.17;;;2.50;;
8716;SDS011;4395;48.554;8.820;2022-10-24T09:57:19;6.33;;;2.40;;
8716;SDS011;4395;48.554;8.820;2022-10-24T09:59:36;6.50;;;2.40;;
8716;SDS011;4395;48.554;8.820;2022-10-24T10:01:42;6.20;;;2.77;;
8716;SDS011;4395;48.554;8.820;2022-10-24T10:03:51;6.30;;;2.23;;
8716;SDS011;4395;48.554;8.820;2022-10-24T10:06:13;5.17;;;2.10;;
8716;SDS011;4395;48.554;8.820;2022-10-24T10:08:19;4.10;;;1.90;;
8716;SDS011;4395;48.554;8.820;2022-10-24T10:10:28;7.07;;;2.30;;
8716;SDS011;4395;48.554;8.820;2022-10-24T10:12:38;5.03;;;1.80;;
8716;SDS011;4395;48.554;8.820;2022-10-24T10:14:43;4.40;;;1.90;;
8716;SDS011;4395;48.554;8.820;2022-10-24T10:16:45;7.00;;;2.40;;
8716;SDS011;4395;48.554;8.820;2022-10-24T10:19:01;5.63;;;2.57;;
8716;SDS011;4395;48.554;8.820;2022-10-24T10:21:08;5.83;;;1.87;;
8716;SDS011;4395;48.554;8.820;2022-10-24T10:23:18;6.17;;;1.90;;
8716;SDS011;4395;48.554;8.820;2022-10-24T10:25:27;4.43;;;1.90;;
8716;SDS011;4395;48.554;8.820;2022-10-24T10:27:33;3.07;;;1.50;;
8716;SDS011;4395;48.554;8.820;2022-10-24T10:29:38;3.33;;;1.70;;
8716;SDS011;4395;48.554;8.820;2022-10-24T10:31:42;3.93;;;1.70;;
8716;SDS011;4395;48.554;8.820;2022-10-24T10:33:50;4.50;;;1.73;;
8716;SDS011;4395;48.554;8.820;2022-10-24T10:36:04;9.23;;;2.00;;
8716;SDS011;4395;48.554;8.820;2022-10-24T10:38:18;6.80;;;2.40;;
8716;SDS011;4395;48.554;8.820;2022-10-24T10:40:43;4.73;;;1.90;;
8716;SDS011;4395;48.554;8.820;2022-10-24T10:42:52;3.50;;;1.70;;
8716;SDS011;4395;48.554;8.820;2022-10-24T10:45:07;3.80;;;1.80;;
8716;SDS011;4395;48.554;8.820;2022-10-24T10:47:20;2.80;;;1.87;;
8716;SDS011;4395;48.554;8.820;2022-10-24T10:49:36;4.40;;;1.87;;
8716;SDS011;4395;48.554;8.820;2022-10-24T10:51:41;2.60;;;1.57;;
8716;SDS011;4395;48.554;8.820;2022-10-24T10:53:49;4.30;;;1.80;;
8716;SDS011;4395;48.554;8.820;2022-10-24T10:56:00;2.47;;;1.70;;
8716;SDS011;4395;48.554;8.820;2022-10-24T10:58:18;2.80;;;1.80;;
8716;SDS011;4395;48.554;8.820;2022-10-24T11:00:35;3.77;;;1.73;;
8716;SDS011;4395;48.554;8.820;2022-10-24T11:03:00;2.20;;;1.40;;
8716;SDS011;4395;48.554;8.820;2022-10-24T11:05:18;3.57;;;1.50;;
8716;SDS011;4395;48.554;8.820;2022-10-24T11:07:29;3.87;;;1.40;;
8716;SDS011;4395;48.554;8.820;2022-10-24T11:09:41;4.60;;;1.80;;
8716;SDS011;4395;48.554;8.820;2022-10-24T11:11:47;3.50;;;1.40;;
8716;SDS011;4395;48.554;8.820;2022-10-24T11:13:56;3.63;;;1.80;;
8716;SDS011;4395;48.554;8.820;2022-10-24T11:16:06;4.70;;;1.83;;
8716;SDS011;4395;48.554;8.820;2022-10-24T11:18:14;2.60;;;1.40;;
8716;SDS011;4395;48.554;8.820;2022-10-24T11:20:24;3.30;;;1.47;;
8716;SDS011;4395;48.554;8.820;2022-10-24T11:22:32;5.20;;;1.83;;
8716;SDS011;4395;48.554;8.820;2022-10-24T11:24:42;3.83;;;1.67;;
8716;SDS011;4395;48.554;8.820;2022-10-24T11:26:53;2.37;;;1.07;;
8716;SDS011;4395;48.554;8.820;2022-10-24T11:29:03;2.57;;;1.37;;
8716;SDS011;4395;48.554;8.820;2022-10-24T11:31:16;2.83;;;1.30;;
8716;SDS011;4395;48.554;8.820;2022-10-24T11:33:24;2.90;;;1.50;;
8716;SDS011;4395;48.554;8.820;2022-10-24T11:35:30;4.87;;;1.70;;
8716;SDS011;4395;48.554;8.820;2022-10-24T11:37:34;4.60;;;2.10;;
8716;SDS011;4395;48.554;8.820;2022-10-24T11:39:41;4.00;;;1.80;;
8716;SDS011;4395;48.554;8.820;2022-10-24T11:41:52;2.50;;;1.40;;
8716;SDS011;4395;48.554;8.820;2022-10-24T11:44:00;2.87;;;1.10;;
8716;SDS011;4395;48.554;8.820;2022-10-24T11:46:09;4.10;;;1.40;;
8716;SDS011;4395;48.554;8.820;2022-10-24T11:48:20;1.33;;;1.20;;
8716;SDS011;4395;48.554;8.820;2022-10-24T11:50:32;2.83;;;1.10;;
8716;SDS011;4395;48.554;8.820;2022-10-24T11:52:41;5.43;;;4.30;;
8716;SDS011;4395;48.554;8.820;2022-10-24T11:54:47;7.63;;;4.23;;
8716;SDS011;4395;48.554;8.820;2022-10-24T11:56:55;3.13;;;1.83;;
8716;SDS011;4395;48.554;8.820;2022-10-24T11:59:02;2.23;;;1.40;;
8716;SDS011;4395;48.554;8.820;2022-10-24T12:01:11;2.83;;;1.33;;
8716;SDS011;4395;48.554;8.820;2022-10-24T12:06:02;3.17;;;1.20;;
8716;SDS011;4395;48.554;8.820;2022-10-24T12:08:22;2.93;;;1.53;;
8716;SDS011;4395;48.554;8.820;2022-10-24T12:10:55;1.80;;;1.70;;
8716;SDS011;4395;48.554;8.820;2022-10-24T12:13:17;2.20;;;1.60;;
8716;SDS011;4395;48.554;8.820;2022-10-24T12:15:44;3.63;;;1.60;;
8716;SDS011;4395;48.554;8.820;2022-10-24T12:17:59;2.57;;;1.67;;
8716;SDS011;4395;48.554;8.820;2022-10-24T12:20:10;2.97;;;1.40;;
8716;SDS011;4395;48.554;8.820;2022-10-24T12:22:17;4.40;;;2.23;;
8716;SDS011;4395;48.554;8.820;2022-10-24T12:24:26;5.77;;;2.97;;
8716;SDS011;4395;48.554;8.820;2022-10-24T12:26:31;2.80;;;1.60;;
8716;SDS011;4395;48.554;8.820;2022-10-24T12:28:35;1.87;;;1.00;;
8716;SDS011;4395;48.554;8.820;2022-10-24T12:30:39;3.80;;;1.40;;
8716;SDS011;4395;48.554;8.820;2022-10-24T12:32:43;3.57;;;0.90;;
8716;SDS011;4395;48.554;8.820;2022-10-24T12:34:58;1.80;;;1.30;;
8716;SDS011;4395;48.554;8.820;2022-10-24T12:37:36;3.00;;;1.10;;
8716;SDS011;4395;48.554;8.820;2022-10-24T12:39:45;3.93;;;0.90;;
8716;SDS011;4395;48.554;8.820;2022-10-24T12:41:49;1.30;;;0.90;;
8716;SDS011;4395;48.554;8.820;2022-10-24T12:44:22;1.67;;;1.20;;
8716;SDS011;4395;48.554;8.820;2022-10-24T12:49:10;2.17;;;1.03;;
8716;SDS011;4395;48.554;8.820;2022-10-24T12:51:25;3.30;;;1.67;;
8716;SDS011;4395;48.554;8.820;2022-10-24T12:53:32;3.30;;;1.10;;
8716;SDS011;4395;48.554;8.820;2022-10-24T12:58:20;3.63;;;2.10;;
8716;SDS011;4395;48.554;8.820;2022-10-24T13:00:25;22.13;;;9.17;;
8716;SDS011;4395;48.554;8.820;2022-10-24T13:02:45;21.80;;;11.53;;
8716;SDS011;4395;48.554;8.820;2022-10-24T13:05:02;9.80;;;5.73;;
8716;SDS011;4395;48.554;8.820;2022-10-24T13:07:22;12.73;;;6.27;;
8716;SDS011;4395;48.554;8.820;2022-10-24T13:09:41;31.37;;;19.77;;
8716;SDS011;4395;48.554;8.820;2022-10-24T13:11:58;39.17;;;29.07;;
8716;SDS011;4395;48.554;8.820;2022-10-24T13:14:22;12.03;;;9.03;;
8716;SDS011;4395;48.554;8.820;2022-10-24T13:16:37;3.47;;;2.13;;